Time;durP1;ratioP1;P1;durP2;ratioP2;P2;SDS_P1;SDS_P2;PMS_P1;PMS_P2;Temp;Humidity;BMP_temperature;BMP_pressure;BME280_temperature;BME280_humidity;BME280_pressure;Samples;Min_cycle;Max_cycle;Signal;HPM_P1;HPM_P2
2023/08/24 01:03:55;;;;;;;;;;;;;;;;;;2940558;19;52110;-73
2023/08/24 01:04:56;;;;;;;;;;;26.20;54.40;;;;;;3055395;19;5339;-72
2023/08/24 01:05:57;;;;;;;;;;;26.40;55.20;;;;;;3056701;19;4765;-81
2023/08/24 01:06:58;;;;;;;;;;;26.30;54.90;;;;;;3060510;19;5380;-81
2023/08/24 01:07:59;;;;;;;;;;;26.20;55.10;;;;;;3057322;19;5687;-74
2023/08/24 01:09:00;;;;;;;;;;;26.20;55.00;;;;;;3056541;19;5343;-74
2023/08/24 01:10:01;;;;;;;;;;;26.20;55.00;;;;;;3056286;19;5288;-77
2023/08/24 01:11:49;;;;;;;;;;;26.20;55.70;;;;;;3053920;19;5658;-67
2023/08/24 01:13:07;;;;;;;;;;;26.20;54.90;;;;;;2949455;19;2004415;-67
2023/08/24 01:14:18;;;;;;;;;;;25.20;54.90;;;;;;3051768;19;6013;-67
2023/08/24 01:15:22;;;;;;;;;;;26.20;55.10;;;;;;3051965;19;5165;-67
2023/08/24 01:16:27;;;;;;;;;;;26.20;55.00;;;;;;3052342;19;5271;-67
2023/08/24 01:17:29;;;;;;;;;;;26.20;55.10;;;;;;3053931;19;4631;-66
2023/08/24 01:18:30;;;;;;;;;;;26.20;55.00;;;;;;3052599;19;5321;-67
2023/08/24 01:19:42;;;;;;;;;;;26.20;55.00;;;;;;3052596;19;4776;-67
2023/08/24 01:20:43;;;;;;;;;;;26.20;55.00;;;;;;3052543;19;5385;-67
2023/08/24 01:21:43;;;;;;;;;;;27.80;56.20;;;;;;3052705;19;5422;-67
2023/08/24 01:23:14;;;;;;;;;;;26.10;55.00;;;;;;3054153;19;6727;-67
2023/08/24 01:24:18;;;;;;;;;;;26.20;55.20;;;;;;3052863;19;5265;-66
2023/08/24 01:25:37;;;;;;;;;;;26.10;55.10;;;;;;3053170;19;5918;-67
2023/08/24 01:26:37;;;;;;;;;;;26.20;55.00;;;;;;3053717;19;5245;-66
2023/08/24 01:27:38;;;;;;;;;;;27.50;56.10;;;;;;3053445;19;20534;-67
2023/08/24 01:28:39;;;;;;;;;;;26.10;54.80;;;;;;3053165;19;5332;-66
2023/08/24 01:29:40;;;;;;;;;;;26.10;55.10;;;;;;3052595;19;5361;-67
2023/08/24 01:30:41;;;;;;;;;;;26.20;54.90;;;;;;3054128;19;5295;-67
2023/08/24 01:31:41;;;;;;;;;;;26.10;54.80;;;;;;3053899;19;5316;-66
2023/08/24 01:32:43;;;;;;;;;;;26.20;55.10;;;;;;3052913;19;5132;-67
2023/08/24 01:33:44;;;;;;;;;;;26.10;55.00;;;;;;3052594;19;5394;-67
2023/08/24 01:34:45;;;;;;;;;;;25.90;54.70;;;;;;3052820;19;5415;-67
2023/08/24 01:35:45;;;;;;;;;;;26.10;54.80;;;;;;3053423;19;4825;-66
2023/08/24 01:36:46;;;;;;;;;;;26.10;54.80;;;;;;3053391;19;5339;-67
2023/08/24 01:37:47;;;;;;;;;;;26.10;55.00;;;;;;3053365;19;5459;-67
2023/08/24 01:39:06;;;;;;;;;;;26.10;55.00;;;;;;3053047;19;4635;-66
2023/08/24 01:40:16;;;;;;;;;;;26.10;55.00;;;;;;3052931;19;5862;-68
2023/08/24 01:41:28;;;;;;;;;;;26.10;54.90;;;;;;3053813;19;5283;-67
2023/08/24 01:42:29;;;;;;;;;;;26.10;55.00;;;;;;3053340;19;4669;-67
2023/08/24 01:43:30;;;;;;;;;;;26.10;55.10;;;;;;3053255;19;5249;-67
2023/08/24 01:44:34;;;;;;;;;;;26.20;55.10;;;;;;3053345;19;5623;-67
2023/08/24 01:45:36;;;;;;;;;;;26.10;55.10;;;;;;3052681;19;5266;-67
2023/08/24 01:46:37;;;;;;;;;;;26.10;55.00;;;;;;3054215;19;5423;-68
2023/08/24 01:47:38;;;;;;;;;;;26.10;55.00;;;;;;3053236;19;5276;-68
2023/08/24 01:48:40;;;;;;;;;;;26.10;55.20;;;;;;3052562;19;4701;-66
2023/08/24 01:49:41;;;;;;;;;;;26.10;55.10;;;;;;3052280;19;5438;-67
2023/08/24 01:50:42;;;;;;;;;;;26.10;55.10;;;;;;3051833;19;4802;-67
2023/08/24 01:51:44;;;;;;;;;;;26.10;55.00;;;;;;3052734;19;5415;-67
2023/08/24 01:52:45;;;;;;;;;;;26.10;55.10;;;;;;3031281;19;5295;-67
2023/08/24 01:53:46;;;;;;;;;;;26.10;54.90;;;;;;3052111;19;5485;-67
2023/08/24 01:54:47;;;;;;;;;;;26.10;55.90;;;;;;3051814;19;5293;-68
2023/08/24 01:55:48;;;;;;;;;;;25.60;54.50;;;;;;3051951;19;5399;-67
2023/08/24 01:56:48;;;;;;;;;;;26.10;55.00;;;;;;3052173;19;5626;-66
2023/08/24 01:57:49;;;;;;;;;;;26.10;55.10;;;;;;3052145;19;5396;-67
2023/08/24 01:58:50;;;;;;;;;;;26.10;55.00;;;;;;3047714;19;5713;-67
2023/08/24 01:59:51;;;;;;;;;;;26.00;54.60;;;;;;3052145;19;5711;-67
2023/08/24 02:00:52;;;;;;;;;;;25.70;54.90;;;;;;3049201;19;5282;-68
2023/08/24 02:01:52;;;;;;;;;;;26.10;55.00;;;;;;3051922;19;5241;-68
2023/08/24 02:02:53;;;;;;;;;;;26.10;55.10;;;;;;3052889;19;5361;-67
2023/08/24 02:03:54;;;;;;;;;;;26.00;55.10;;;;;;3052010;19;4905;-66
2023/08/24 02:04:56;;;;;;;;;;;26.00;55.00;;;;;;3051490;19;5151;-66
2023/08/24 02:05:58;;;;;;;;;;;26.10;55.00;;;;;;3031479;19;5598;-67
2023/08/24 02:06:58;;;;;;;;;;;26.10;55.00;;;;;;3052421;19;6758;-66
2023/08/24 02:07:59;;;;;;;;;;;26.00;54.90;;;;;;3052612;19;6417;-66
2023/08/24 02:09:00;;;;;;;;;;;26.00;54.80;;;;;;3051462;19;5353;-67
2023/08/24 02:10:01;;;;;;;;;;;27.50;56.00;;;;;;3050702;19;5404;-67
2023/08/24 02:11:01;;;;;;;;;;;26.90;55.60;;;;;;3054135;19;5330;-67
2023/08/24 02:12:02;;;;;;;;;;;26.00;55.00;;;;;;3054760;19;5270;-67
2023/08/24 02:13:03;;;;;;;;;;;26.00;55.10;;;;;;3053642;19;5311;-67
2023/08/24 02:14:03;;;;;;;;;;;26.00;55.10;;;;;;3054520;19;5151;-67
2023/08/24 02:15:04;;;;;;;;;;;26.00;55.00;;;;;;3046046;19;5313;-67
2023/08/24 02:16:12;;;;;;;;;;;26.00;54.80;;;;;;3055897;19;6530;-67
2023/08/24 02:17:13;;;;;;;;;;;26.00;54.90;;;;;;3033113;19;4594;-67
2023/08/24 02:18:14;;;;;;;;;;;26.00;55.00;;;;;;3054349;19;5287;-68
2023/08/24 02:19:16;;;;;;;;;;;26.00;55.10;;;;;;3055102;19;973;-66
2023/08/24 02:20:18;;;;;;;;;;;26.00;54.70;;;;;;3054392;19;5416;-68
2023/08/24 02:21:19;;;;;;;;;;;26.00;55.10;;;;;;3055080;19;4674;-76
2023/08/24 02:22:19;;;;;;;;;;;26.00;54.90;;;;;;3055942;19;5350;-76
2023/08/24 02:23:20;;;;;;;;;;;26.00;54.90;;;;;;3055868;19;6314;-76
2023/08/24 02:24:21;;;;;;;;;;;26.00;55.00;;;;;;3056323;19;5375;-77
2023/08/24 02:25:23;;;;;;;;;;;26.00;54.80;;;;;;3035705;19;5351;-78
2023/08/24 02:26:24;;;;;;;;;;;25.70;54.60;;;;;;3055719;19;5385;-78
2023/08/24 02:27:25;;;;;;;;;;;26.00;54.80;;;;;;3055767;19;5456;-76
2023/08/24 02:28:25;;;;;;;;;;;26.00;54.60;;;;;;3055756;19;5302;-76
2023/08/24 02:29:27;;;;;;;;;;;25.90;54.90;;;;;;3056930;19;5361;-77
2023/08/24 02:30:28;;;;;;;;;;;26.00;54.60;;;;;;3058195;19;5194;-76
2023/08/24 02:31:30;;;;;;;;;;;26.00;54.90;;;;;;3031972;19;5607;-75
2023/08/24 02:32:31;;;;;;;;;;;26.00;54.80;;;;;;3056564;19;6488;-75
2023/08/24 02:33:32;;;;;;;;;;;25.90;54.60;;;;;;3054814;19;5411;-74
2023/08/24 02:34:33;;;;;;;;;;;25.90;54.70;;;;;;3055837;19;5440;-75
2023/08/24 02:35:35;;;;;;;;;;;25.90;54.60;;;;;;3056111;19;4637;-74
2023/08/24 02:36:36;;;;;;;;;;;25.90;54.60;;;;;;3034846;19;5202;-75
2023/08/24 02:37:38;;;;;;;;;;;25.90;54.70;;;;;;3056797;19;5423;-73
2023/08/24 02:38:38;;;;;;;;;;;25.90;54.80;;;;;;3056524;19;5237;-74
2023/08/24 02:39:39;;;;;;;;;;;24.90;54.10;;;;;;3057342;19;4735;-74
2023/08/24 02:40:41;;;;;;;;;;;25.90;54.80;;;;;;3056578;19;5250;-75
2023/08/24 02:41:41;;;;;;;;;;;25.90;54.50;;;;;;3056719;19;5326;-75
2023/08/24 02:42:42;;;;;;;;;;;25.90;54.70;;;;;;3057654;19;5585;-74
2023/08/24 02:43:43;;;;;;;;;;;25.90;54.80;;;;;;3056771;19;4959;-73
2023/08/24 02:44:45;;;;;;;;;;;25.90;54.80;;;;;;3055295;19;5172;-74
2023/08/24 02:45:46;;;;;;;;;;;25.90;54.70;;;;;;3055713;19;4812;-75
2023/08/24 02:46:47;;;;;;;;;;;25.90;54.70;;;;;;3056152;19;5276;-74
2023/08/24 02:47:48;;;;;;;;;;;25.90;54.50;;;;;;3055589;19;4807;-74
2023/08/24 02:48:49;;;;;;;;;;;25.70;54.60;;;;;;3056283;19;5409;-74
2023/08/24 02:49:49;;;;;;;;;;;25.90;54.60;;;;;;3054695;19;5185;-74
2023/08/24 02:50:50;;;;;;;;;;;25.90;54.80;;;;;;3056338;19;5453;-74
2023/08/24 02:51:50;;;;;;;;;;;26.00;54.90;;;;;;3033947;19;4794;-74
2023/08/24 02:52:52;;;;;;;;;;;27.00;55.70;;;;;;3054947;19;5257;-75
2023/08/24 02:53:52;;;;;;;;;;;25.60;54.30;;;;;;3056690;19;4813;-75
2023/08/24 02:54:53;;;;;;;;;;;25.90;54.60;;;;;;3056798;19;5338;-74
2023/08/24 02:55:54;;;;;;;;;;;25.90;54.60;;;;;;3062340;19;5438;-75
2023/08/24 02:56:55;;;;;;;;;;;25.90;54.60;;;;;;3069913;19;5788;-74
2023/08/24 02:57:57;;;;;;;;;;;25.90;54.50;;;;;;3068887;19;5404;-75
2023/08/24 02:58:57;;;;;;;;;;;25.80;54.70;;;;;;3069147;19;5736;-73
2023/08/24 02:59:58;;;;;;;;;;;25.80;54.60;;;;;;3069693;19;5367;-74
2023/08/24 03:00:58;;;;;;;;;;;25.80;54.50;;;;;;3069617;19;5317;-74
2023/08/24 03:02:00;;;;;;;;;;;25.80;54.60;;;;;;3069071;19;4686;-74
2023/08/24 03:03:01;;;;;;;;;;;25.80;54.50;;;;;;3068000;19;5333;-74
2023/08/24 03:04:04;;;;;;;;;;;25.80;54.50;;;;;;3069096;19;5304;-74
2023/08/24 03:05:05;;;;;;;;;;;25.90;54.50;;;;;;3068904;19;5045;-74
2023/08/24 03:06:06;;;;;;;;;;;25.80;54.60;;;;;;3068798;19;5555;-75
2023/08/24 03:07:08;;;;;;;;;;;25.90;54.60;;;;;;3065339;19;5809;-73
2023/08/24 03:08:08;;;;;;;;;;;26.30;54.80;;;;;;3067723;19;5569;-74
2023/08/24 03:09:09;;;;;;;;;;;26.60;55.10;;;;;;3067264;19;4875;-73
2023/08/24 03:10:10;;;;;;;;;;;25.80;54.50;;;;;;3068534;19;4773;-73
2023/08/24 03:11:10;;;;;;;;;;;25.80;54.70;;;;;;3068333;19;4778;-75
2023/08/24 03:12:12;;;;;;;;;;;25.90;54.70;;;;;;3070960;19;5412;-74
2023/08/24 03:13:13;;;;;;;;;;;25.80;54.50;;;;;;3075268;19;5369;-74
2023/08/24 03:14:14;;;;;;;;;;;25.80;54.50;;;;;;3075433;19;5246;-74
2023/08/24 03:15:15;;;;;;;;;;;25.80;54.70;;;;;;3074954;19;5301;-74
2023/08/24 03:16:16;;;;;;;;;;;25.80;54.70;;;;;;3073638;19;4729;-74
2023/08/24 03:17:17;;;;;;;;;;;26.20;54.80;;;;;;3074179;19;5440;-74
2023/08/24 03:18:17;;;;;;;;;;;25.80;54.80;;;;;;3068344;19;4729;-74
2023/08/24 03:19:18;;;;;;;;;;;25.80;54.50;;;;;;3063702;19;5305;-75
2023/08/24 03:20:19;;;;;;;;;;;25.80;54.50;;;;;;3064507;19;4797;-74
2023/08/24 03:21:20;;;;;;;;;;;25.80;54.80;;;;;;3064254;19;5000;-74
2023/08/24 03:22:20;;;;;;;;;;;25.80;54.40;;;;;;3063714;19;5385;-75
2023/08/24 03:23:21;;;;;;;;;;;25.80;54.40;;;;;;3063198;19;5349;-74
2023/08/24 03:24:22;;;;;;;;;;;25.80;54.60;;;;;;3062862;19;4608;-74
2023/08/24 03:25:23;;;;;;;;;;;25.80;54.50;;;;;;3063792;19;5964;-74
2023/08/24 03:26:23;;;;;;;;;;;25.80;54.40;;;;;;3063262;19;5401;-74
2023/08/24 03:27:25;;;;;;;;;;;25.80;54.70;;;;;;3062874;19;4632;-75
2023/08/24 03:28:26;;;;;;;;;;;25.80;54.60;;;;;;3061532;19;5126;-75
2023/08/24 03:29:26;;;;;;;;;;;25.80;54.50;;;;;;3060206;19;5262;-74
2023/08/24 03:30:27;;;;;;;;;;;25.80;54.50;;;;;;3061934;19;5353;-75
2023/08/24 03:31:29;;;;;;;;;;;26.70;55.30;;;;;;3063436;19;5907;-73
2023/08/24 03:32:31;;;;;;;;;;;25.80;54.70;;;;;;3061298;19;5193;-73
2023/08/24 03:33:34;;;;;;;;;;;25.80;54.60;;;;;;3061649;19;5222;-72
2023/08/24 03:34:36;;;;;;;;;;;25.80;54.70;;;;;;3061981;19;4676;-73
2023/08/24 03:35:41;;;;;;;;;;;25.80;54.50;;;;;;3061649;19;4810;-73
2023/08/24 03:36:43;;;;;;;;;;;25.80;54.80;;;;;;3061505;19;6183;-73
2023/08/24 03:37:43;;;;;;;;;;;26.90;55.30;;;;;;3060951;19;5421;-74
2023/08/24 03:38:45;;;;;;;;;;;25.80;54.60;;;;;;3061101;19;4642;-73
2023/08/24 03:39:45;;;;;;;;;;;25.80;54.70;;;;;;3061696;19;5531;-73
2023/08/24 03:40:46;;;;;;;;;;;24.40;53.80;;;;;;3039542;19;6344;-73
2023/08/24 03:41:46;;;;;;;;;;;26.20;54.90;;;;;;3057956;19;5352;-66
2023/08/24 03:42:49;;;;;;;;;;;25.80;54.90;;;;;;3057709;19;5382;-67
2023/08/24 03:43:49;;;;;;;;;;;25.80;54.00;;;;;;3058559;19;5193;-66
2023/08/24 03:44:50;;;;;;;;;;;25.90;54.40;;;;;;3057987;19;5376;-67
2023/08/24 03:45:52;;;;;;;;;;;26.00;53.90;;;;;;3036165;19;5351;-67
2023/08/24 03:46:52;;;;;;;;;;;26.00;53.80;;;;;;3056908;19;5421;-67
2023/08/24 03:47:53;;;;;;;;;;;26.10;54.00;;;;;;3056661;19;4745;-68
2023/08/24 03:48:54;;;;;;;;;;;26.10;53.60;;;;;;3056711;19;4763;-68
2023/08/24 03:49:54;;;;;;;;;;;26.10;53.60;;;;;;3058754;19;5722;-67
2023/08/24 03:50:56;;;;;;;;;;;26.20;53.70;;;;;;3036445;19;5761;-67
2023/08/24 03:51:56;;;;;;;;;;;26.10;53.50;;;;;;3058023;19;5298;-69
2023/08/24 03:52:57;;;;;;;;;;;26.10;53.70;;;;;;3058142;19;5208;-70
2023/08/24 03:53:58;;;;;;;;;;;26.10;53.40;;;;;;3058096;19;5370;-69
2023/08/24 03:54:58;;;;;;;;;;;26.10;53.50;;;;;;3059304;19;5047;-70
2023/08/24 03:55:59;;;;;;;;;;;26.20;53.60;;;;;;3058961;19;5422;-70
2023/08/24 03:57:00;;;;;;;;;;;26.10;53.80;;;;;;3059375;19;4627;-70
2023/08/24 03:58:00;;;;;;;;;;;27.30;55.20;;;;;;3060065;19;5275;-70
2023/08/24 03:59:01;;;;;;;;;;;26.20;53.90;;;;;;3058215;19;6305;-69
2023/08/24 04:00:05;;;;;;;;;;;26.10;54.00;;;;;;3058142;19;5386;-70
2023/08/24 04:01:10;;;;;;;;;;;26.10;53.80;;;;;;3058328;19;6997;-72
2023/08/24 04:02:11;;;;;;;;;;;26.10;54.00;;;;;;3057561;19;5402;-71
2023/08/24 04:03:13;;;;;;;;;;;26.10;53.80;;;;;;3058800;19;5463;-70
2023/08/24 04:04:14;;;;;;;;;;;25.70;54.30;;;;;;3058253;19;5168;-69
2023/08/24 04:05:17;;;;;;;;;;;26.10;53.90;;;;;;3058854;19;5322;-70
2023/08/24 04:06:19;;;;;;;;;;;26.10;53.90;;;;;;3059158;19;5343;-70
2023/08/24 04:07:20;;;;;;;;;;;26.20;54.10;;;;;;3058848;19;5244;-69
2023/08/24 04:08:20;;;;;;;;;;;26.10;54.20;;;;;;3059610;19;5277;-69
2023/08/24 04:09:21;;;;;;;;;;;26.10;54.20;;;;;;3058560;19;5320;-69
2023/08/24 04:10:22;;;;;;;;;;;26.10;53.90;;;;;;3037994;19;5344;-69
2023/08/24 04:11:23;;;;;;;;;;;26.10;53.70;;;;;;3054550;19;7080;-70
2023/08/24 04:12:24;;;;;;;;;;;26.10;54.30;;;;;;3058466;19;5462;-70
2023/08/24 04:13:26;;;;;;;;;;;26.10;54.40;;;;;;3059723;19;4779;-70
2023/08/24 04:14:26;;;;;;;;;;;26.10;54.80;;;;;;3059717;19;5300;-70
2023/08/24 04:15:27;;;;;;;;;;;26.50;54.60;;;;;;3059144;19;4772;-70
2023/08/24 04:16:28;;;;;;;;;;;26.30;53.90;;;;;;3058660;19;5239;-71
2023/08/24 04:17:30;;;;;;;;;;;26.30;54.00;;;;;;3058225;19;5363;-70
2023/08/24 04:18:31;;;;;;;;;;;25.60;53.10;;;;;;3038700;19;5192;-70
2023/08/24 04:19:33;;;;;;;;;;;26.30;53.90;;;;;;3059961;19;4750;-69
2023/08/24 04:20:33;;;;;;;;;;;26.40;53.80;;;;;;3057570;19;5111;-70
2023/08/24 04:21:35;;;;;;;;;;;26.30;53.60;;;;;;3059073;19;5328;-69
2023/08/24 04:22:36;;;;;;;;;;;26.30;53.80;;;;;;3060166;19;5369;-70
2023/08/24 04:23:37;;;;;;;;;;;26.30;54.00;;;;;;3035331;19;4607;-69
2023/08/24 04:24:38;;;;;;;;;;;26.30;53.80;;;;;;3054776;19;5192;-70
2023/08/24 04:25:40;;;;;;;;;;;26.30;54.00;;;;;;3056911;19;5775;-70
2023/08/24 04:26:40;;;;;;;;;;;26.30;54.00;;;;;;3056467;19;5231;-70
2023/08/24 04:27:41;;;;;;;;;;;26.30;54.10;;;;;;3057715;19;4737;-70
2023/08/24 04:28:43;;;;;;;;;;;26.30;53.70;;;;;;3056476;19;4928;-71
2023/08/24 04:29:43;;;;;;;;;;;26.30;53.60;;;;;;3056264;19;5292;-70
2023/08/24 04:30:54;;;;;;;;;;;26.30;54.00;;;;;;3054919;19;4549;-70
2023/08/24 04:31:54;;;;;;;;;;;26.30;54.20;;;;;;3055754;19;5431;-69
2023/08/24 04:32:55;;;;;;;;;;;26.30;54.20;;;;;;3056135;19;4860;-70
2023/08/24 04:33:55;;;;;;;;;;;25.70;53.70;;;;;;3032985;19;5359;-71
2023/08/24 04:34:56;;;;;;;;;;;26.30;54.10;;;;;;3055383;19;4842;-70
2023/08/24 04:35:58;;;;;;;;;;;26.20;54.40;;;;;;3055074;19;5663;-69
2023/08/24 04:36:58;;;;;;;;;;;26.20;54.30;;;;;;3055625;19;5276;-70
2023/08/24 04:37:59;;;;;;;;;;;26.20;54.30;;;;;;3056338;19;5229;-71
2023/08/24 04:39:00;;;;;;;;;;;26.20;54.30;;;;;;3056361;19;5163;-70
2023/08/24 04:40:02;;;;;;;;;;;26.20;54.30;;;;;;3034808;19;5092;-70
2023/08/24 04:41:07;;;;;;;;;;;26.20;54.40;;;;;;3055334;19;5341;-69
2023/08/24 04:42:07;;;;;;;;;;;26.20;54.00;;;;;;3055683;19;5174;-70
2023/08/24 04:43:09;;;;;;;;;;;26.20;54.00;;;;;;3055477;19;5269;-69
2023/08/24 04:44:11;;;;;;;;;;;26.20;54.30;;;;;;3053947;19;4777;-71
2023/08/24 04:45:12;;;;;;;;;;;26.20;54.00;;;;;;3034024;19;4768;-71
2023/08/24 04:46:14;;;;;;;;;;;26.20;54.30;;;;;;3055125;19;5303;-71
2023/08/24 04:47:15;;;;;;;;;;;26.40;55.00;;;;;;3053936;19;5356;-70
2023/08/24 04:48:16;;;;;;;;;;;26.30;55.30;;;;;;3056329;19;5271;-71
2023/08/24 04:49:17;;;;;;;;;;;26.40;54.60;;;;;;3055529;19;4881;-70
2023/08/24 04:50:17;;;;;;;;;;;26.40;54.10;;;;;;3033637;19;5288;-71
2023/08/24 04:51:18;;;;;;;;;;;26.40;54.20;;;;;;3055399;19;5616;-74
2023/08/24 04:52:18;;;;;;;;;;;26.40;54.00;;;;;;3053434;19;5026;-75
2023/08/24 04:53:20;;;;;;;;;;;26.30;53.70;;;;;;3053959;19;5289;-75
2023/08/24 04:54:21;;;;;;;;;;;26.40;54.50;;;;;;3056345;19;4879;-76
2023/08/24 04:55:22;;;;;;;;;;;26.50;53.90;;;;;;3056472;19;4577;-75
2023/08/24 04:56:23;;;;;;;;;;;27.10;55.00;;;;;;3055385;19;5441;-76
2023/08/24 04:57:25;;;;;;;;;;;26.40;54.20;;;;;;3053888;19;4899;-74
2023/08/24 04:58:26;;;;;;;;;;;26.40;53.70;;;;;;3056877;19;4977;-74
2023/08/24 04:59:26;;;;;;;;;;;26.40;54.10;;;;;;3056594;19;4821;-75
2023/08/24 05:00:27;;;;;;;;;;;26.50;54.00;;;;;;3055219;19;5297;-75
2023/08/24 05:01:28;;;;;;;;;;;26.40;54.30;;;;;;3055473;19;6629;-72
2023/08/24 05:02:29;;;;;;;;;;;26.40;54.50;;;;;;3055308;19;5938;-73
2023/08/24 05:03:30;;;;;;;;;;;26.50;54.10;;;;;;3054236;19;5137;-74
2023/08/24 05:04:30;;;;;;;;;;;26.40;53.80;;;;;;3056623;19;4810;-74
2023/08/24 05:05:32;;;;;;;;;;;26.40;54.20;;;;;;3034954;19;5162;-73
2023/08/24 05:06:33;;;;;;;;;;;26.40;53.90;;;;;;3055334;19;5055;-73
2023/08/24 05:07:36;;;;;;;;;;;26.40;54.40;;;;;;3055642;19;6113;-72
2023/08/24 05:08:37;;;;;;;;;;;26.00;53.80;;;;;;3056443;19;5132;-75
2023/08/24 05:09:37;;;;;;;;;;;26.30;54.20;;;;;;3054476;19;5553;-73
2023/08/24 05:10:38;;;;;;;;;;;26.40;54.50;;;;;;3055350;19;5590;-74
2023/08/24 05:11:39;;;;;;;;;;;26.40;54.40;;;;;;3055827;19;5652;-74
2023/08/24 05:12:39;;;;;;;;;;;26.30;54.60;;;;;;3054640;19;4765;-78
2023/08/24 05:13:40;;;;;;;;;;;26.30;54.00;;;;;;3055105;19;4803;-77
2023/08/24 05:14:41;;;;;;;;;;;28.10;55.80;;;;;;3056374;19;4730;-73
2023/08/24 05:15:42;;;;;;;;;;;26.20;54.10;;;;;;3054754;19;4654;-73
2023/08/24 05:16:42;;;;;;;;;;;26.30;54.40;;;;;;3046551;19;5371;-73
2023/08/24 05:17:43;;;;;;;;;;;26.30;54.60;;;;;;3053232;19;5377;-74
2023/08/24 05:18:44;;;;;;;;;;;26.30;54.40;;;;;;3054303;19;5285;-72
2023/08/24 05:19:44;;;;;;;;;;;27.70;55.40;;;;;;3055732;19;4729;-73
2023/08/24 05:20:45;;;;;;;;;;;26.30;54.50;;;;;;3055976;19;5274;-73
2023/08/24 05:21:46;;;;;;;;;;;26.30;54.30;;;;;;3055212;19;5416;-73
2023/08/24 05:22:47;;;;;;;;;;;26.30;54.80;;;;;;3056918;19;5272;-71
2023/08/24 05:23:49;;;;;;;;;;;26.20;54.40;;;;;;3058223;19;6168;-73
2023/08/24 05:24:49;;;;;;;;;;;26.20;54.30;;;;;;3054129;19;4913;-73
2023/08/24 05:25:50;;;;;;;;;;;26.20;54.80;;;;;;3056115;19;4904;-74
2023/08/24 05:26:51;;;;;;;;;;;26.30;54.80;;;;;;3033367;19;5327;-74
2023/08/24 05:27:53;;;;;;;;;;;26.30;55.50;;;;;;3054606;19;5373;-74
2023/08/24 05:28:53;;;;;;;;;;;26.40;54.90;;;;;;3054885;19;4674;-73
2023/08/24 05:29:54;;;;;;;;;;;26.50;55.50;;;;;;3052013;19;5350;-74
2023/08/24 05:30:55;;;;;;;;;;;26.50;55.00;;;;;;3058067;19;5425;-74
2023/08/24 05:31:55;;;;;;;;;;;26.50;55.30;;;;;;3057463;19;5269;-75
2023/08/24 05:32:56;;;;;;;;;;;26.50;54.70;;;;;;3057164;19;5291;-74
2023/08/24 05:33:56;;;;;;;;;;;26.50;54.40;;;;;;3056180;19;4596;-74
2023/08/24 05:34:57;;;;;;;;;;;26.50;54.60;;;;;;3055619;19;4749;-74
2023/08/24 05:35:58;;;;;;;;;;;26.80;54.70;;;;;;3053897;19;5458;-75
2023/08/24 05:37:00;;;;;;;;;;;26.50;55.00;;;;;;3058324;19;4826;-74
2023/08/24 05:38:02;;;;;;;;;;;27.00;54.80;;;;;;3012425;19;4720;-74
2023/08/24 05:39:03;;;;;;;;;;;26.50;54.40;;;;;;3055046;19;5336;-73
2023/08/24 05:40:05;;;;;;;;;;;26.50;54.10;;;;;;3054996;19;5345;-73
2023/08/24 05:41:06;;;;;;;;;;;26.50;54.10;;;;;;3056776;19;4751;-73
2023/08/24 05:42:08;;;;;;;;;;;26.50;55.30;;;;;;3055430;19;20668;-76
2023/08/24 05:43:09;;;;;;;;;;;26.50;54.40;;;;;;3057018;19;5282;-77
2023/08/24 05:44:10;;;;;;;;;;;27.10;55.10;;;;;;3057612;19;5224;-76
2023/08/24 05:45:12;;;;;;;;;;;26.50;54.60;;;;;;3056862;19;5424;-76
2023/08/24 05:46:13;;;;;;;;;;;26.50;54.30;;;;;;3056725;19;4188;-76
2023/08/24 05:47:14;;;;;;;;;;;26.50;54.50;;;;;;3056561;19;5392;-77
2023/08/24 05:48:15;;;;;;;;;;;26.50;54.30;;;;;;3056803;19;5327;-76
2023/08/24 05:49:15;;;;;;;;;;;26.50;54.80;;;;;;3057763;19;5357;-77
2023/08/24 05:50:16;;;;;;;;;;;26.70;55.00;;;;;;3063810;19;5374;-76
2023/08/24 05:51:20;;;;;;;;;;;26.50;54.90;;;;;;3069981;19;5405;-77
2023/08/24 05:52:22;;;;;;;;;;;26.50;54.90;;;;;;3070472;19;4845;-75
2023/08/24 05:53:22;;;;;;;;;;;26.40;54.70;;;;;;3070308;19;5565;-74
2023/08/24 05:54:23;;;;;;;;;;;27.00;55.30;;;;;;3069280;19;5312;-77
2023/08/24 05:55:23;;;;;;;;;;;26.40;55.20;;;;;;3069563;19;4773;-76
2023/08/24 05:56:24;;;;;;;;;;;26.40;55.10;;;;;;3069463;19;6320;-76
2023/08/24 05:57:25;;;;;;;;;;;26.40;54.90;;;;;;3070279;19;5313;-77
2023/08/24 05:58:26;;;;;;;;;;;26.70;55.30;;;;;;3070645;19;4881;-78
2023/08/24 05:59:27;;;;;;;;;;;26.40;54.90;;;;;;3069738;19;5320;-77
2023/08/24 06:00:28;;;;;;;;;;;28.10;56.30;;;;;;3069136;19;4720;-76
2023/08/24 06:01:29;;;;;;;;;;;26.40;54.90;;;;;;3068671;19;5402;-71
2023/08/24 06:02:30;;;;;;;;;;;26.50;55.20;;;;;;3069159;19;5430;-71
2023/08/24 06:03:30;;;;;;;;;;;26.40;55.10;;;;;;3069041;19;4807;-71
2023/08/24 06:04:31;;;;;;;;;;;26.30;55.10;;;;;;3068628;19;5281;-72
2023/08/24 06:05:32;;;;;;;;;;;26.30;54.80;;;;;;3070193;19;5061;-72
2023/08/24 06:06:32;;;;;;;;;;;26.40;55.40;;;;;;3069258;19;5343;-72
2023/08/24 06:07:34;;;;;;;;;;;26.30;55.10;;;;;;3068881;19;5057;-72
2023/08/24 06:08:35;;;;;;;;;;;27.30;55.50;;;;;;3068244;19;5797;-72
2023/08/24 06:09:35;;;;;;;;;;;26.30;54.90;;;;;;3067398;19;5670;-72
2023/08/24 06:10:36;;;;;;;;;;;26.30;55.50;;;;;;3068791;19;4697;-72
2023/08/24 06:11:37;;;;;;;;;;;26.30;55.50;;;;;;3069669;19;5607;-72
2023/08/24 06:12:37;;;;;;;;;;;26.30;54.80;;;;;;3068692;19;5379;-72
2023/08/24 06:13:38;;;;;;;;;;;26.30;55.30;;;;;;3069112;19;5380;-72
2023/08/24 06:14:39;;;;;;;;;;;26.30;55.20;;;;;;3058597;19;5430;-73
2023/08/24 06:15:40;;;;;;;;;;;26.30;55.00;;;;;;3058247;19;5316;-73
2023/08/24 06:16:40;;;;;;;;;;;26.30;55.40;;;;;;3058996;19;5411;-73
2023/08/24 06:17:41;;;;;;;;;;;26.40;55.50;;;;;;3056952;19;4726;-73
2023/08/24 06:18:42;;;;;;;;;;;26.30;55.10;;;;;;3058179;19;5594;-73
2023/08/24 06:19:42;;;;;;;;;;;26.30;55.10;;;;;;3057126;19;5163;-73
2023/08/24 06:20:43;;;;;;;;;;;26.30;55.20;;;;;;3056387;19;5282;-72
2023/08/24 06:21:43;;;;;;;;;;;26.30;55.20;;;;;;3058318;19;4887;-73
2023/08/24 06:22:44;;;;;;;;;;;26.30;55.30;;;;;;3035996;19;5183;-72
2023/08/24 06:23:47;;;;;;;;;;;26.30;55.40;;;;;;3056980;19;5562;-73
2023/08/24 06:24:47;;;;;;;;;;;26.60;55.80;;;;;;3056751;19;5359;-72
2023/08/24 06:25:48;;;;;;;;;;;26.30;55.70;;;;;;3057924;19;4971;-73
2023/08/24 06:26:49;;;;;;;;;;;26.30;55.00;;;;;;3056811;19;5123;-72
2023/08/24 06:27:49;;;;;;;;;;;26.30;55.40;;;;;;3057523;19;5364;-72
2023/08/24 06:28:50;;;;;;;;;;;26.30;55.30;;;;;;3056042;19;5170;-72
2023/08/24 06:29:51;;;;;;;;;;;26.30;55.50;;;;;;3056927;19;5835;-72
2023/08/24 06:30:51;;;;;;;;;;;26.20;55.10;;;;;;3056034;19;5291;-72
2023/08/24 06:31:52;;;;;;;;;;;26.30;55.20;;;;;;3057766;19;5748;-72
2023/08/24 06:32:52;;;;;;;;;;;26.20;55.30;;;;;;3057523;19;5151;-72
2023/08/24 06:33:53;;;;;;;;;;;26.20;55.70;;;;;;3056616;19;5605;-71
2023/08/24 06:34:54;;;;;;;;;;;26.20;55.30;;;;;;3055453;19;5227;-72
2023/08/24 06:35:54;;;;;;;;;;;26.20;55.90;;;;;;3056474;19;4812;-71
2023/08/24 06:36:56;;;;;;;;;;;26.30;55.50;;;;;;3054992;19;4907;-71
2023/08/24 06:37:56;;;;;;;;;;;26.20;55.50;;;;;;3057399;19;5363;-71
2023/08/24 06:38:58;;;;;;;;;;;26.20;55.60;;;;;;3053920;19;5306;-71
2023/08/24 06:39:59;;;;;;;;;;;26.20;55.30;;;;;;3054718;19;5361;-71
2023/08/24 06:41:00;;;;;;;;;;;26.40;55.60;;;;;;3056692;19;5462;-71
2023/08/24 06:42:02;;;;;;;;;;;26.30;56.30;;;;;;3054993;19;5271;-73
2023/08/24 06:43:04;;;;;;;;;;;26.80;56.50;;;;;;3055673;19;5768;-72
2023/08/24 06:44:04;;;;;;;;;;;26.40;55.80;;;;;;3056710;19;4812;-72
2023/08/24 06:45:06;;;;;;;;;;;26.40;55.30;;;;;;3057367;19;4616;-68
2023/08/24 06:46:07;;;;;;;;;;;26.40;55.20;;;;;;3058583;19;6464;-68
2023/08/24 06:47:08;;;;;;;;;;;26.40;55.70;;;;;;3056735;19;5312;-68
2023/08/24 06:48:09;;;;;;;;;;;26.40;55.60;;;;;;3057967;19;5231;-68
2023/08/24 06:49:09;;;;;;;;;;;26.40;55.80;;;;;;3058932;19;4692;-68
2023/08/24 06:50:10;;;;;;;;;;;26.40;55.40;;;;;;3057988;19;5387;-68
2023/08/24 06:51:11;;;;;;;;;;;26.40;55.70;;;;;;3055511;19;5426;-68
2023/08/24 06:52:12;;;;;;;;;;;26.50;55.70;;;;;;3055327;19;5284;-66
2023/08/24 06:53:17;;;;;;;;;;;26.50;55.40;;;;;;3056573;19;5088;-68
2023/08/24 06:54:18;;;;;;;;;;;26.50;55.00;;;;;;3056018;19;5418;-67
2023/08/24 06:55:19;;;;;;;;;;;26.50;55.50;;;;;;3055336;19;5486;-67
2023/08/24 06:56:22;;;;;;;;;;;26.50;55.40;;;;;;3055296;19;5374;-68
2023/08/24 06:57:24;;;;;;;;;;;26.50;55.70;;;;;;3053439;19;5805;-69
2023/08/24 06:58:25;;;;;;;;;;;26.50;55.20;;;;;;3053043;19;5335;-67
2023/08/24 06:59:26;;;;;;;;;;;26.50;55.40;;;;;;3055578;19;5032;-67
2023/08/24 07:00:26;;;;;;;;;;;26.50;55.00;;;;;;3054416;19;5299;-68
2023/08/24 07:01:27;;;;;;;;;;;26.50;55.40;;;;;;3054693;19;5582;-68
2023/08/24 07:02:28;;;;;;;;;;;26.50;55.60;;;;;;3054535;19;4875;-68
2023/08/24 07:03:30;;;;;;;;;;;26.40;55.10;;;;;;3051949;19;5458;-68
2023/08/24 07:04:31;;;;;;;;;;;26.40;55.60;;;;;;3053579;19;5407;-67
2023/08/24 07:05:32;;;;;;;;;;;26.40;55.20;;;;;;3055594;19;5888;-68
2023/08/24 07:06:35;;;;;;;;;;;26.40;55.60;;;;;;3056516;19;4789;-66
2023/08/24 07:07:36;;;;;;;;;;;26.40;55.80;;;;;;3057319;19;5328;-66